sensor_id;sensor_type;location;lat;lon;timestamp;P1;durP1;ratioP1;P2;durP2;ratioP2
18340;SDS011;9296;48.084;16.352;2023-09-19T00:02:12;1.27;;;0.47;;
18340;SDS011;9296;48.084;16.352;2023-09-19T00:04:42;0.98;;;0.47;;
18340;SDS011;9296;48.084;16.352;2023-09-19T00:07:11;1.10;;;0.40;;
18340;SDS011;9296;48.084;16.352;2023-09-19T00:09:39;0.60;;;0.43;;
18340;SDS011;9296;48.084;16.352;2023-09-19T00:12:13;2.50;;;0.50;;
18340;SDS011;9296;48.084;16.352;2023-09-19T00:14:45;1.50;;;0.40;;
18340;SDS011;9296;48.084;16.352;2023-09-19T00:20:25;3.50;;;0.40;;
18340;SDS011;9296;48.084;16.352;2023-09-19T00:22:55;0.93;;;0.40;;
18340;SDS011;9296;48.084;16.352;2023-09-19T00:25:31;1.23;;;0.40;;
18340;SDS011;9296;48.084;16.352;2023-09-19T00:28:00;1.10;;;0.40;;
18340;SDS011;9296;48.084;16.352;2023-09-19T00:30:30;1.25;;;0.40;;
18340;SDS011;9296;48.084;16.352;2023-09-19T00:36:03;1.70;;;0.30;;
18340;SDS011;9296;48.084;16.352;2023-09-19T00:38:32;0.98;;;0.40;;
18340;SDS011;9296;48.084;16.352;2023-09-19T00:41:05;0.40;;;0.30;;
18340;SDS011;9296;48.084;16.352;2023-09-19T00:43:33;0.43;;;0.40;;
18340;SDS011;9296;48.084;16.352;2023-09-19T00:48:58;0.82;;;0.40;;
18340;SDS011;9296;48.084;16.352;2023-09-19T00:54:31;1.33;;;0.40;;
18340;SDS011;9296;48.084;16.352;2023-09-19T00:57:01;1.95;;;0.40;;
18340;SDS011;9296;48.084;16.352;2023-09-19T00:59:30;1.52;;;0.47;;
18340;SDS011;9296;48.084;16.352;2023-09-19T01:02:00;0.30;;;0.30;;
18340;SDS011;9296;48.084;16.352;2023-09-19T01:04:32;0.50;;;0.32;;
18340;SDS011;9296;48.084;16.352;2023-09-19T01:07:01;1.33;;;0.50;;
18340;SDS011;9296;48.084;16.352;2023-09-19T01:12:37;1.00;;;0.50;;
18340;SDS011;9296;48.084;16.352;2023-09-19T01:45:24;4.60;;;0.93;;
18340;SDS011;9296;48.084;16.352;2023-09-19T01:47:53;4.47;;;0.90;;
18340;SDS011;9296;48.084;16.352;2023-09-19T01:50:26;2.47;;;0.95;;
18340;SDS011;9296;48.084;16.352;2023-09-19T01:52:59;1.83;;;0.90;;
18340;SDS011;9296;48.084;16.352;2023-09-19T01:55:29;3.80;;;1.00;;
18340;SDS011;9296;48.084;16.352;2023-09-19T01:57:59;5.43;;;1.30;;
18340;SDS011;9296;48.084;16.352;2023-09-19T02:00:31;2.28;;;0.90;;
18340;SDS011;9296;48.084;16.352;2023-09-19T02:06:04;3.38;;;0.90;;
18340;SDS011;9296;48.084;16.352;2023-09-19T02:08:36;4.50;;;0.80;;
18340;SDS011;9296;48.084;16.352;2023-09-19T02:11:04;2.22;;;1.00;;
18340;SDS011;9296;48.084;16.352;2023-09-19T02:13:32;1.30;;;0.80;;
18340;SDS011;9296;48.084;16.352;2023-09-19T02:16:01;3.92;;;1.10;;
18340;SDS011;9296;48.084;16.352;2023-09-19T02:18:29;1.13;;;0.70;;
18340;SDS011;9296;48.084;16.352;2023-09-19T02:20:56;2.75;;;1.10;;
18340;SDS011;9296;48.084;16.352;2023-09-19T02:23:24;1.50;;;0.80;;
18340;SDS011;9296;48.084;16.352;2023-09-19T02:25:52;1.80;;;0.70;;
18340;SDS011;9296;48.084;16.352;2023-09-19T02:28:19;2.13;;;0.70;;
18340;SDS011;9296;48.084;16.352;2023-09-19T02:30:47;1.50;;;0.88;;
18340;SDS011;9296;48.084;16.352;2023-09-19T02:36:20;2.20;;;0.60;;
18340;SDS011;9296;48.084;16.352;2023-09-19T02:38:48;0.63;;;0.50;;
18340;SDS011;9296;48.084;16.352;2023-09-19T02:41:15;0.70;;;0.60;;
18340;SDS011;9296;48.084;16.352;2023-09-19T02:43:43;1.48;;;0.60;;
18340;SDS011;9296;48.084;16.352;2023-09-19T02:46:11;1.35;;;0.70;;
18340;SDS011;9296;48.084;16.352;2023-09-19T02:48:42;2.15;;;0.65;;
18340;SDS011;9296;48.084;16.352;2023-09-19T02:51:11;1.67;;;0.73;;
18340;SDS011;9296;48.084;16.352;2023-09-19T02:53:41;3.45;;;0.80;;
18340;SDS011;9296;48.084;16.352;2023-09-19T02:56:08;1.00;;;0.63;;
18340;SDS011;9296;48.084;16.352;2023-09-19T02:58:38;1.67;;;0.63;;
18340;SDS011;9296;48.084;16.352;2023-09-19T03:04:13;1.13;;;0.70;;
18340;SDS011;9296;48.084;16.352;2023-09-19T03:06:44;1.42;;;0.65;;
18340;SDS011;9296;48.084;16.352;2023-09-19T03:09:15;0.82;;;0.47;;
18340;SDS011;9296;48.084;16.352;2023-09-19T03:11:44;1.90;;;0.68;;
18340;SDS011;9296;48.084;16.352;2023-09-19T03:14:14;1.02;;;0.70;;
18340;SDS011;9296;48.084;16.352;2023-09-19T03:19:50;0.95;;;0.60;;
18340;SDS011;9296;48.084;16.352;2023-09-19T03:22:18;1.83;;;0.60;;
18340;SDS011;9296;48.084;16.352;2023-09-19T03:24:48;2.58;;;0.70;;
18340;SDS011;9296;48.084;16.352;2023-09-19T03:27:15;3.08;;;0.70;;
18340;SDS011;9296;48.084;16.352;2023-09-19T03:29:43;1.27;;;0.80;;
18340;SDS011;9296;48.084;16.352;2023-09-19T03:32:11;1.65;;;0.77;;
18340;SDS011;9296;48.084;16.352;2023-09-19T03:34:41;2.88;;;0.90;;
18340;SDS011;9296;48.084;16.352;2023-09-19T03:37:08;1.58;;;0.60;;
18340;SDS011;9296;48.084;16.352;2023-09-19T03:39:36;3.53;;;1.02;;
18340;SDS011;9296;48.084;16.352;2023-09-19T03:42:06;1.80;;;0.80;;
18340;SDS011;9296;48.084;16.352;2023-09-19T03:44:34;1.20;;;0.80;;
18340;SDS011;9296;48.084;16.352;2023-09-19T03:47:02;2.38;;;1.10;;
18340;SDS011;9296;48.084;16.352;2023-09-19T03:49:30;1.15;;;0.75;;
18340;SDS011;9296;48.084;16.352;2023-09-19T03:51:59;2.05;;;0.77;;
18340;SDS011;9296;48.084;16.352;2023-09-19T03:54:26;1.10;;;0.73;;
18340;SDS011;9296;48.084;16.352;2023-09-19T03:56:54;2.05;;;0.80;;
18340;SDS011;9296;48.084;16.352;2023-09-19T03:59:23;2.70;;;0.90;;
18340;SDS011;9296;48.084;16.352;2023-09-19T04:04:55;1.75;;;0.80;;
18340;SDS011;9296;48.084;16.352;2023-09-19T04:07:22;2.60;;;0.90;;
18340;SDS011;9296;48.084;16.352;2023-09-19T04:09:54;4.07;;;1.17;;
18340;SDS011;9296;48.084;16.352;2023-09-19T04:12:23;2.20;;;0.90;;
18340;SDS011;9296;48.084;16.352;2023-09-19T04:14:54;1.20;;;0.80;;
18340;SDS011;9296;48.084;16.352;2023-09-19T04:23:15;3.03;;;1.13;;
18340;SDS011;9296;48.084;16.352;2023-09-19T04:25:43;2.47;;;1.30;;
18340;SDS011;9296;48.084;16.352;2023-09-19T04:28:12;3.00;;;1.10;;
18340;SDS011;9296;48.084;16.352;2023-09-19T04:30:42;1.95;;;0.98;;
18340;SDS011;9296;48.084;16.352;2023-09-19T04:33:09;1.45;;;1.10;;
18340;SDS011;9296;48.084;16.352;2023-09-19T04:35:40;2.25;;;1.13;;
18340;SDS011;9296;48.084;16.352;2023-09-19T04:38:07;3.10;;;1.20;;
18340;SDS011;9296;48.084;16.352;2023-09-19T04:40:36;2.40;;;0.98;;
18340;SDS011;9296;48.084;16.352;2023-09-19T04:43:04;2.50;;;1.00;;
18340;SDS011;9296;48.084;16.352;2023-09-19T04:45:33;2.38;;;1.17;;
18340;SDS011;9296;48.084;16.352;2023-09-19T04:51:06;2.63;;;0.95;;
18340;SDS011;9296;48.084;16.352;2023-09-19T04:53:35;2.88;;;1.13;;
18340;SDS011;9296;48.084;16.352;2023-09-19T04:56:03;4.00;;;1.23;;
18340;SDS011;9296;48.084;16.352;2023-09-19T04:58:35;2.40;;;1.08;;
18340;SDS011;9296;48.084;16.352;2023-09-19T05:01:02;2.78;;;1.40;;
18340;SDS011;9296;48.084;16.352;2023-09-19T05:06:35;3.03;;;1.40;;
18340;SDS011;9296;48.084;16.352;2023-09-19T05:09:04;1.73;;;1.17;;
18340;SDS011;9296;48.084;16.352;2023-09-19T05:11:32;3.08;;;1.30;;
18340;SDS011;9296;48.084;16.352;2023-09-19T05:14:00;2.72;;;1.20;;
18340;SDS011;9296;48.084;16.352;2023-09-19T05:19:51;2.40;;;1.40;;
18340;SDS011;9296;48.084;16.352;2023-09-19T05:22:20;2.75;;;1.50;;
18340;SDS011;9296;48.084;16.352;2023-09-19T05:24:49;2.78;;;1.42;;
18340;SDS011;9296;48.084;16.352;2023-09-19T05:27:19;2.67;;;1.50;;
18340;SDS011;9296;48.084;16.352;2023-09-19T05:29:47;2.22;;;1.20;;
18340;SDS011;9296;48.084;16.352;2023-09-19T05:38:27;2.65;;;1.38;;
18340;SDS011;9296;48.084;16.352;2023-09-19T05:40:56;2.28;;;1.63;;
18340;SDS011;9296;48.084;16.352;2023-09-19T05:43:23;3.42;;;1.58;;
18340;SDS011;9296;48.084;16.352;2023-09-19T05:45:50;3.38;;;1.65;;
18340;SDS011;9296;48.084;16.352;2023-09-19T05:48:18;2.85;;;1.50;;
18340;SDS011;9296;48.084;16.352;2023-09-19T05:50:46;3.10;;;1.50;;
18340;SDS011;9296;48.084;16.352;2023-09-19T05:53:14;10.07;;;1.95;;
18340;SDS011;9296;48.084;16.352;2023-09-19T05:55:47;4.57;;;1.70;;
18340;SDS011;9296;48.084;16.352;2023-09-19T05:58:17;3.47;;;1.73;;
18340;SDS011;9296;48.084;16.352;2023-09-19T06:00:45;4.90;;;1.77;;
18340;SDS011;9296;48.084;16.352;2023-09-19T06:03:14;3.55;;;1.67;;
18340;SDS011;9296;48.084;16.352;2023-09-19T06:05:42;2.45;;;1.70;;
18340;SDS011;9296;48.084;16.352;2023-09-19T06:08:11;3.08;;;1.50;;
18340;SDS011;9296;48.084;16.352;2023-09-19T06:10:38;3.35;;;1.50;;
18340;SDS011;9296;48.084;16.352;2023-09-19T06:13:07;3.10;;;1.48;;
18340;SDS011;9296;48.084;16.352;2023-09-19T06:15:35;3.70;;;1.67;;
18340;SDS011;9296;48.084;16.352;2023-09-19T06:18:03;2.67;;;1.70;;
18340;SDS011;9296;48.084;16.352;2023-09-19T06:20:30;3.42;;;1.85;;
18340;SDS011;9296;48.084;16.352;2023-09-19T06:22:58;3.40;;;1.73;;
18340;SDS011;9296;48.084;16.352;2023-09-19T06:25:27;3.55;;;1.70;;
18340;SDS011;9296;48.084;16.352;2023-09-19T06:27:54;2.80;;;1.67;;
18340;SDS011;9296;48.084;16.352;2023-09-19T06:30:23;3.78;;;1.70;;
18340;SDS011;9296;48.084;16.352;2023-09-19T06:32:55;4.65;;;1.90;;
18340;SDS011;9296;48.084;16.352;2023-09-19T06:35:22;4.60;;;1.60;;
18340;SDS011;9296;48.084;16.352;2023-09-19T06:37:51;2.33;;;1.77;;
18340;SDS011;9296;48.084;16.352;2023-09-19T06:40:18;2.72;;;1.50;;
18340;SDS011;9296;48.084;16.352;2023-09-19T06:42:46;3.50;;;1.60;;
18340;SDS011;9296;48.084;16.352;2023-09-19T06:45:14;8.13;;;1.80;;
18340;SDS011;9296;48.084;16.352;2023-09-19T06:47:45;3.65;;;1.67;;
18340;SDS011;9296;48.084;16.352;2023-09-19T06:50:15;2.83;;;1.60;;
18340;SDS011;9296;48.084;16.352;2023-09-19T06:52:44;4.25;;;1.60;;
18340;SDS011;9296;48.084;16.352;2023-09-19T06:55:15;2.00;;;1.50;;
18340;SDS011;9296;48.084;16.352;2023-09-19T06:57:42;4.05;;;1.42;;
18340;SDS011;9296;48.084;16.352;2023-09-19T07:00:10;2.35;;;1.40;;
18340;SDS011;9296;48.084;16.352;2023-09-19T07:02:44;1.98;;;1.25;;
18340;SDS011;9296;48.084;16.352;2023-09-19T07:05:12;3.65;;;1.30;;
18340;SDS011;9296;48.084;16.352;2023-09-19T07:07:39;2.50;;;1.30;;
18340;SDS011;9296;48.084;16.352;2023-09-19T07:10:06;2.15;;;1.10;;
18340;SDS011;9296;48.084;16.352;2023-09-19T07:12:36;3.47;;;1.30;;
18340;SDS011;9296;48.084;16.352;2023-09-19T07:15:03;2.63;;;1.40;;
18340;SDS011;9296;48.084;16.352;2023-09-19T07:17:31;4.07;;;1.30;;
18340;SDS011;9296;48.084;16.352;2023-09-19T07:19:59;2.28;;;1.30;;
18340;SDS011;9296;48.084;16.352;2023-09-19T07:22:32;3.70;;;1.20;;
18340;SDS011;9296;48.084;16.352;2023-09-19T07:24:59;3.22;;;1.40;;
18340;SDS011;9296;48.084;16.352;2023-09-19T07:27:27;2.17;;;1.35;;
18340;SDS011;9296;48.084;16.352;2023-09-19T07:29:54;3.92;;;1.30;;
18340;SDS011;9296;48.084;16.352;2023-09-19T07:38:29;1.80;;;1.30;;
18340;SDS011;9296;48.084;16.352;2023-09-19T07:40:59;2.72;;;1.50;;
18340;SDS011;9296;48.084;16.352;2023-09-19T07:43:27;1.98;;;1.35;;
18340;SDS011;9296;48.084;16.352;2023-09-19T07:45:55;2.05;;;1.17;;
18340;SDS011;9296;48.084;16.352;2023-09-19T07:48:23;2.30;;;1.35;;
18340;SDS011;9296;48.084;16.352;2023-09-19T07:50:50;2.38;;;1.23;;
18340;SDS011;9296;48.084;16.352;2023-09-19T07:53:17;3.47;;;1.15;;
18340;SDS011;9296;48.084;16.352;2023-09-19T07:55:46;1.90;;;1.00;;
18340;SDS011;9296;48.084;16.352;2023-09-19T07:58:14;2.33;;;1.10;;
18340;SDS011;9296;48.084;16.352;2023-09-19T08:00:41;2.20;;;1.38;;
18340;SDS011;9296;48.084;16.352;2023-09-19T08:03:09;2.13;;;1.40;;
18340;SDS011;9296;48.084;16.352;2023-09-19T08:05:39;1.90;;;1.17;;
18340;SDS011;9296;48.084;16.352;2023-09-19T08:08:08;2.78;;;1.10;;
18340;SDS011;9296;48.084;16.352;2023-09-19T08:10:35;2.22;;;1.30;;
18340;SDS011;9296;48.084;16.352;2023-09-19T08:13:06;2.70;;;1.23;;
18340;SDS011;9296;48.084;16.352;2023-09-19T08:15:36;3.30;;;1.20;;
18340;SDS011;9296;48.084;16.352;2023-09-19T08:18:10;2.30;;;1.30;;
18340;SDS011;9296;48.084;16.352;2023-09-19T08:20:37;1.60;;;1.00;;
18340;SDS011;9296;48.084;16.352;2023-09-19T08:23:07;3.78;;;1.63;;
18340;SDS011;9296;48.084;16.352;2023-09-19T08:25:34;2.72;;;1.17;;
18340;SDS011;9296;48.084;16.352;2023-09-19T08:28:03;2.03;;;1.13;;
18340;SDS011;9296;48.084;16.352;2023-09-19T08:30:35;2.08;;;1.00;;
18340;SDS011;9296;48.084;16.352;2023-09-19T08:33:02;2.13;;;1.27;;
18340;SDS011;9296;48.084;16.352;2023-09-19T08:35:30;3.15;;;1.20;;
18340;SDS011;9296;48.084;16.352;2023-09-19T08:37:57;2.85;;;1.40;;
18340;SDS011;9296;48.084;16.352;2023-09-19T08:40:25;3.15;;;1.30;;
18340;SDS011;9296;48.084;16.352;2023-09-19T08:42:55;3.25;;;1.30;;
18340;SDS011;9296;48.084;16.352;2023-09-19T08:45:22;5.07;;;1.40;;
18340;SDS011;9296;48.084;16.352;2023-09-19T08:48:15;1.52;;;1.00;;
18340;SDS011;9296;48.084;16.352;2023-09-19T08:50:43;1.45;;;1.20;;
18340;SDS011;9296;48.084;16.352;2023-09-19T08:53:15;3.55;;;1.50;;
18340;SDS011;9296;48.084;16.352;2023-09-19T08:55:48;2.08;;;1.25;;
18340;SDS011;9296;48.084;16.352;2023-09-19T08:58:19;4.72;;;1.45;;
18340;SDS011;9296;48.084;16.352;2023-09-19T09:00:48;2.83;;;1.20;;
18340;SDS011;9296;48.084;16.352;2023-09-19T09:06:20;1.48;;;1.17;;
18340;SDS011;9296;48.084;16.352;2023-09-19T09:08:48;2.88;;;1.30;;
18340;SDS011;9296;48.084;16.352;2023-09-19T09:11:17;1.13;;;1.02;;
18340;SDS011;9296;48.084;16.352;2023-09-19T09:13:44;3.92;;;1.27;;
18340;SDS011;9296;48.084;16.352;2023-09-19T09:16:12;1.77;;;1.27;;
18340;SDS011;9296;48.084;16.352;2023-09-19T09:21:43;3.05;;;1.13;;
18340;SDS011;9296;48.084;16.352;2023-09-19T09:24:26;1.45;;;1.20;;
18340;SDS011;9296;48.084;16.352;2023-09-19T09:26:54;3.20;;;1.23;;
18340;SDS011;9296;48.084;16.352;2023-09-19T09:29:29;2.67;;;1.50;;
18340;SDS011;9296;48.084;16.352;2023-09-19T09:32:16;2.05;;;1.23;;
18340;SDS011;9296;48.084;16.352;2023-09-19T09:34:45;3.25;;;1.17;;
18340;SDS011;9296;48.084;16.352;2023-09-19T09:37:14;2.78;;;1.17;;
18340;SDS011;9296;48.084;16.352;2023-09-19T09:39:47;2.55;;;1.20;;
18340;SDS011;9296;48.084;16.352;2023-09-19T09:42:21;2.15;;;1.20;;
18340;SDS011;9296;48.084;16.352;2023-09-19T09:45:07;2.22;;;1.00;;
18340;SDS011;9296;48.084;16.352;2023-09-19T09:53:47;3.22;;;1.15;;
18340;SDS011;9296;48.084;16.352;2023-09-19T09:56:15;1.48;;;1.23;;
18340;SDS011;9296;48.084;16.352;2023-09-19T09:58:49;1.48;;;1.00;;
18340;SDS011;9296;48.084;16.352;2023-09-19T10:01:18;1.58;;;1.00;;
18340;SDS011;9296;48.084;16.352;2023-09-19T10:06:49;1.38;;;1.27;;
18340;SDS011;9296;48.084;16.352;2023-09-19T10:09:20;1.95;;;1.10;;
18340;SDS011;9296;48.084;16.352;2023-09-19T10:12:00;1.85;;;1.20;;
18340;SDS011;9296;48.084;16.352;2023-09-19T10:14:29;1.13;;;1.00;;
18340;SDS011;9296;48.084;16.352;2023-09-19T10:16:58;1.73;;;1.05;;
18340;SDS011;9296;48.084;16.352;2023-09-19T10:22:32;3.58;;;1.23;;
18340;SDS011;9296;48.084;16.352;2023-09-19T10:25:02;1.73;;;1.30;;
18340;SDS011;9296;48.084;16.352;2023-09-19T10:27:32;1.80;;;1.17;;
18340;SDS011;9296;48.084;16.352;2023-09-19T10:30:03;3.97;;;1.20;;
18340;SDS011;9296;48.084;16.352;2023-09-19T10:32:33;2.78;;;1.20;;
18340;SDS011;9296;48.084;16.352;2023-09-19T10:35:02;3.65;;;1.40;;
18340;SDS011;9296;48.084;16.352;2023-09-19T10:37:42;1.58;;;1.17;;
18340;SDS011;9296;48.084;16.352;2023-09-19T10:40:13;1.23;;;1.13;;
18340;SDS011;9296;48.084;16.352;2023-09-19T10:42:41;2.17;;;1.20;;
18340;SDS011;9296;48.084;16.352;2023-09-19T10:45:09;2.80;;;1.10;;
18340;SDS011;9296;48.084;16.352;2023-09-19T10:47:40;1.40;;;0.90;;
18340;SDS011;9296;48.084;16.352;2023-09-19T10:50:08;1.92;;;1.10;;
18340;SDS011;9296;48.084;16.352;2023-09-19T10:52:39;1.83;;;1.00;;
18340;SDS011;9296;48.084;16.352;2023-09-19T10:55:06;3.05;;;1.10;;
18340;SDS011;9296;48.084;16.352;2023-09-19T10:57:37;2.50;;;1.15;;
18340;SDS011;9296;48.084;16.352;2023-09-19T11:00:05;3.65;;;0.90;;
18340;SDS011;9296;48.084;16.352;2023-09-19T11:08:55;1.05;;;0.90;;
18340;SDS011;9296;48.084;16.352;2023-09-19T11:14:15;1.65;;;1.02;;
18340;SDS011;9296;48.084;16.352;2023-09-19T11:22:28;2.40;;;1.23;;
18340;SDS011;9296;48.084;16.352;2023-09-19T11:25:41;2.33;;;1.00;;
18340;SDS011;9296;48.084;16.352;2023-09-19T11:28:28;2.08;;;1.30;;
18340;SDS011;9296;48.084;16.352;2023-09-19T11:30:57;1.55;;;1.00;;
18340;SDS011;9296;48.084;16.352;2023-09-19T11:33:25;2.50;;;0.98;;
18340;SDS011;9296;48.084;16.352;2023-09-19T11:36:00;1.25;;;1.00;;
18340;SDS011;9296;48.084;16.352;2023-09-19T11:46:52;3.22;;;1.05;;
18340;SDS011;9296;48.084;16.352;2023-09-19T11:49:25;1.92;;;1.10;;
18340;SDS011;9296;48.084;16.352;2023-09-19T11:51:55;3.17;;;1.00;;
18340;SDS011;9296;48.084;16.352;2023-09-19T11:54:22;2.83;;;1.10;;
18340;SDS011;9296;48.084;16.352;2023-09-19T11:56:53;2.08;;;1.25;;
18340;SDS011;9296;48.084;16.352;2023-09-19T11:59:21;2.65;;;1.20;;
18340;SDS011;9296;48.084;16.352;2023-09-19T12:01:50;3.10;;;1.02;;
18340;SDS011;9296;48.084;16.352;2023-09-19T12:04:33;1.58;;;0.85;;
18340;SDS011;9296;48.084;16.352;2023-09-19T12:07:03;1.40;;;1.05;;
18340;SDS011;9296;48.084;16.352;2023-09-19T12:09:31;1.65;;;1.00;;
18340;SDS011;9296;48.084;16.352;2023-09-19T12:11:58;4.72;;;1.13;;
18340;SDS011;9296;48.084;16.352;2023-09-19T12:14:25;1.88;;;1.10;;
18340;SDS011;9296;48.084;16.352;2023-09-19T12:16:53;2.50;;;1.00;;
18340;SDS011;9296;48.084;16.352;2023-09-19T12:19:21;2.90;;;1.05;;
18340;SDS011;9296;48.084;16.352;2023-09-19T12:21:55;2.35;;;1.13;;
18340;SDS011;9296;48.084;16.352;2023-09-19T12:24:24;3.53;;;1.23;;
18340;SDS011;9296;48.084;16.352;2023-09-19T12:26:54;2.47;;;0.90;;
18340;SDS011;9296;48.084;16.352;2023-09-19T12:29:22;2.80;;;1.10;;
18340;SDS011;9296;48.084;16.352;2023-09-19T12:31:49;1.60;;;1.00;;
18340;SDS011;9296;48.084;16.352;2023-09-19T12:34:19;4.22;;;0.80;;
18340;SDS011;9296;48.084;16.352;2023-09-19T12:36:46;1.40;;;0.90;;
18340;SDS011;9296;48.084;16.352;2023-09-19T12:39:23;1.45;;;0.80;;
18340;SDS011;9296;48.084;16.352;2023-09-19T12:41:51;1.52;;;1.02;;
18340;SDS011;9296;48.084;16.352;2023-09-19T12:44:19;1.45;;;1.15;;
18340;SDS011;9296;48.084;16.352;2023-09-19T12:46:49;2.10;;;1.10;;
18340;SDS011;9296;48.084;16.352;2023-09-19T12:52:20;2.83;;;1.10;;
18340;SDS011;9296;48.084;16.352;2023-09-19T12:54:52;1.42;;;1.00;;
18340;SDS011;9296;48.084;16.352;2023-09-19T12:57:23;1.50;;;1.10;;
18340;SDS011;9296;48.084;16.352;2023-09-19T12:59:51;2.75;;;1.00;;
18340;SDS011;9296;48.084;16.352;2023-09-19T13:02:19;2.60;;;1.00;;
18340;SDS011;9296;48.084;16.352;2023-09-19T13:04:52;2.47;;;0.93;;
18340;SDS011;9296;48.084;16.352;2023-09-19T13:07:39;1.48;;;0.90;;
18340;SDS011;9296;48.084;16.352;2023-09-19T13:10:10;2.22;;;1.00;;
18340;SDS011;9296;48.084;16.352;2023-09-19T13:12:41;1.08;;;0.98;;
18340;SDS011;9296;48.084;16.352;2023-09-19T13:15:09;1.50;;;0.95;;
18340;SDS011;9296;48.084;16.352;2023-09-19T13:17:42;1.75;;;1.20;;
18340;SDS011;9296;48.084;16.352;2023-09-19T13:20:20;2.65;;;1.10;;
18340;SDS011;9296;48.084;16.352;2023-09-19T13:22:49;1.75;;;1.00;;
18340;SDS011;9296;48.084;16.352;2023-09-19T13:25:21;1.48;;;0.90;;
18340;SDS011;9296;48.084;16.352;2023-09-19T13:27:49;1.63;;;1.00;;
18340;SDS011;9296;48.084;16.352;2023-09-19T13:30:19;4.43;;;0.90;;
18340;SDS011;9296;48.084;16.352;2023-09-19T13:32:47;2.38;;;0.98;;
18340;SDS011;9296;48.084;16.352;2023-09-19T13:35:14;1.15;;;0.85;;
18340;SDS011;9296;48.084;16.352;2023-09-19T13:37:42;1.70;;;1.00;;
18340;SDS011;9296;48.084;16.352;2023-09-19T13:40:11;2.63;;;1.20;;
18340;SDS011;9296;48.084;16.352;2023-09-19T13:42:40;2.63;;;1.23;;
18340;SDS011;9296;48.084;16.352;2023-09-19T13:45:08;1.73;;;1.20;;
18340;SDS011;9296;48.084;16.352;2023-09-19T13:47:37;1.30;;;0.93;;
18340;SDS011;9296;48.084;16.352;2023-09-19T13:53:07;2.13;;;0.90;;
18340;SDS011;9296;48.084;16.352;2023-09-19T13:55:35;1.38;;;0.93;;
18340;SDS011;9296;48.084;16.352;2023-09-19T13:58:04;2.15;;;1.17;;
18340;SDS011;9296;48.084;16.352;2023-09-19T14:00:32;1.90;;;1.20;;
18340;SDS011;9296;48.084;16.352;2023-09-19T14:03:01;2.70;;;1.40;;
18340;SDS011;9296;48.084;16.352;2023-09-19T14:05:42;1.02;;;0.90;;
18340;SDS011;9296;48.084;16.352;2023-09-19T14:08:09;2.15;;;0.80;;
18340;SDS011;9296;48.084;16.352;2023-09-19T14:10:37;2.05;;;0.90;;
18340;SDS011;9296;48.084;16.352;2023-09-19T14:13:06;1.30;;;0.80;;
18340;SDS011;9296;48.084;16.352;2023-09-19T14:15:37;2.58;;;1.02;;
18340;SDS011;9296;48.084;16.352;2023-09-19T14:24:16;1.50;;;0.80;;
18340;SDS011;9296;48.084;16.352;2023-09-19T14:26:43;2.42;;;0.88;;
18340;SDS011;9296;48.084;16.352;2023-09-19T14:29:12;1.30;;;0.80;;
18340;SDS011;9296;48.084;16.352;2023-09-19T14:31:39;1.45;;;1.13;;
18340;SDS011;9296;48.084;16.352;2023-09-19T14:34:07;1.80;;;0.90;;
18340;SDS011;9296;48.084;16.352;2023-09-19T14:36:35;1.13;;;0.80;;
18340;SDS011;9296;48.084;16.352;2023-09-19T14:39:04;1.52;;;0.98;;
18340;SDS011;9296;48.084;16.352;2023-09-19T14:41:31;1.77;;;1.00;;
18340;SDS011;9296;48.084;16.352;2023-09-19T14:43:58;1.73;;;0.90;;
18340;SDS011;9296;48.084;16.352;2023-09-19T14:46:27;3.33;;;0.90;;
18340;SDS011;9296;48.084;16.352;2023-09-19T14:48:55;21.73;;;4.07;;
18340;SDS011;9296;48.084;16.352;2023-09-19T14:51:24;9.90;;;2.25;;
18340;SDS011;9296;48.084;16.352;2023-09-19T14:53:52;21.88;;;4.85;;
18340;SDS011;9296;48.084;16.352;2023-09-19T14:56:19;2.28;;;1.05;;
18340;SDS011;9296;48.084;16.352;2023-09-19T14:58:49;7.45;;;1.85;;
18340;SDS011;9296;48.084;16.352;2023-09-19T15:01:16;14.75;;;3.88;;
18340;SDS011;9296;48.084;16.352;2023-09-19T15:03:44;27.80;;;5.72;;
18340;SDS011;9296;48.084;16.352;2023-09-19T15:06:13;25.38;;;6.20;;
18340;SDS011;9296;48.084;16.352;2023-09-19T15:08:42;9.38;;;2.83;;
18340;SDS011;9296;48.084;16.352;2023-09-19T15:11:10;4.03;;;1.40;;
18340;SDS011;9296;48.084;16.352;2023-09-19T15:13:38;10.00;;;2.88;;
18340;SDS011;9296;48.084;16.352;2023-09-19T15:16:05;10.57;;;2.05;;
18340;SDS011;9296;48.084;16.352;2023-09-19T15:18:34;1.60;;;0.80;;
18340;SDS011;9296;48.084;16.352;2023-09-19T15:21:03;2.17;;;1.02;;
18340;SDS011;9296;48.084;16.352;2023-09-19T15:23:31;2.90;;;1.00;;
18340;SDS011;9296;48.084;16.352;2023-09-19T15:25:59;3.05;;;0.93;;
18340;SDS011;9296;48.084;16.352;2023-09-19T15:28:26;1.05;;;0.80;;
18340;SDS011;9296;48.084;16.352;2023-09-19T15:30:58;1.55;;;0.90;;
18340;SDS011;9296;48.084;16.352;2023-09-19T15:33:25;1.15;;;0.95;;
18340;SDS011;9296;48.084;16.352;2023-09-19T15:35:59;1.70;;;0.90;;
18340;SDS011;9296;48.084;16.352;2023-09-19T15:38:29;0.80;;;0.80;;
18340;SDS011;9296;48.084;16.352;2023-09-19T15:40:57;1.35;;;0.80;;
18340;SDS011;9296;48.084;16.352;2023-09-19T15:43:24;1.40;;;0.80;;
18340;SDS011;9296;48.084;16.352;2023-09-19T15:45:51;1.92;;;0.88;;
18340;SDS011;9296;48.084;16.352;2023-09-19T15:51:22;1.30;;;0.70;;
18340;SDS011;9296;48.084;16.352;2023-09-19T15:53:51;1.05;;;0.70;;
18340;SDS011;9296;48.084;16.352;2023-09-19T15:56:22;1.95;;;0.80;;
18340;SDS011;9296;48.084;16.352;2023-09-19T15:58:59;1.48;;;0.75;;
18340;SDS011;9296;48.084;16.352;2023-09-19T16:01:27;0.80;;;0.80;;
18340;SDS011;9296;48.084;16.352;2023-09-19T16:03:54;0.95;;;0.63;;
18340;SDS011;9296;48.084;16.352;2023-09-19T16:06:22;1.58;;;0.80;;
18340;SDS011;9296;48.084;16.352;2023-09-19T16:08:52;1.10;;;0.68;;
18340;SDS011;9296;48.084;16.352;2023-09-19T16:11:21;0.90;;;0.80;;
18340;SDS011;9296;48.084;16.352;2023-09-19T16:13:48;1.63;;;0.80;;
18340;SDS011;9296;48.084;16.352;2023-09-19T16:16:16;4.78;;;0.93;;
18340;SDS011;9296;48.084;16.352;2023-09-19T16:18:45;3.47;;;0.95;;
18340;SDS011;9296;48.084;16.352;2023-09-19T16:21:13;1.13;;;0.70;;
18340;SDS011;9296;48.084;16.352;2023-09-19T16:23:41;1.23;;;0.80;;
18340;SDS011;9296;48.084;16.352;2023-09-19T16:26:12;0.95;;;0.70;;
18340;SDS011;9296;48.084;16.352;2023-09-19T16:28:40;1.58;;;0.82;;
18340;SDS011;9296;48.084;16.352;2023-09-19T16:31:08;2.15;;;0.90;;
18340;SDS011;9296;48.084;16.352;2023-09-19T16:33:36;0.90;;;0.80;;
18340;SDS011;9296;48.084;16.352;2023-09-19T16:36:07;2.70;;;0.90;;
18340;SDS011;9296;48.084;16.352;2023-09-19T16:38:35;1.20;;;0.80;;
18340;SDS011;9296;48.084;16.352;2023-09-19T16:41:02;1.10;;;0.80;;
18340;SDS011;9296;48.084;16.352;2023-09-19T16:43:31;1.23;;;0.85;;
18340;SDS011;9296;48.084;16.352;2023-09-19T16:45:59;1.33;;;0.90;;
18340;SDS011;9296;48.084;16.352;2023-09-19T16:48:27;1.55;;;0.75;;
18340;SDS011;9296;48.084;16.352;2023-09-19T16:50:58;3.33;;;0.95;;
18340;SDS011;9296;48.084;16.352;2023-09-19T16:53:27;1.00;;;0.80;;
18340;SDS011;9296;48.084;16.352;2023-09-19T16:55:54;1.25;;;0.98;;
18340;SDS011;9296;48.084;16.352;2023-09-19T16:58:22;1.50;;;1.00;;
18340;SDS011;9296;48.084;16.352;2023-09-19T17:00:50;0.88;;;0.82;;
18340;SDS011;9296;48.084;16.352;2023-09-19T17:03:18;1.88;;;0.90;;
18340;SDS011;9296;48.084;16.352;2023-09-19T17:05:45;2.17;;;0.93;;
18340;SDS011;9296;48.084;16.352;2023-09-19T17:08:12;1.00;;;0.90;;
18340;SDS011;9296;48.084;16.352;2023-09-19T17:10:39;0.90;;;0.80;;
18340;SDS011;9296;48.084;16.352;2023-09-19T17:13:09;2.40;;;0.98;;
18340;SDS011;9296;48.084;16.352;2023-09-19T17:15:36;1.27;;;1.00;;
18340;SDS011;9296;48.084;16.352;2023-09-19T17:18:05;1.55;;;0.90;;
18340;SDS011;9296;48.084;16.352;2023-09-19T17:23:36;4.30;;;1.10;;
18340;SDS011;9296;48.084;16.352;2023-09-19T17:26:04;1.10;;;0.77;;
18340;SDS011;9296;48.084;16.352;2023-09-19T17:28:33;9.98;;;3.15;;
18340;SDS011;9296;48.084;16.352;2023-09-19T17:31:00;10.18;;;3.67;;